sensor_id;sensor_type;location;lat;lon;timestamp;P1;durP1;ratioP1;P2;durP2;ratioP2
24644;SDS011;12780;45.502;9.146;2023-12-07T00:02:16;66.20;;;34.08;;
24644;SDS011;12780;45.502;9.146;2023-12-07T00:04:42;67.97;;;34.58;;
24644;SDS011;12780;45.502;9.146;2023-12-07T00:07:08;65.20;;;34.72;;
24644;SDS011;12780;45.502;9.146;2023-12-07T00:09:34;64.45;;;33.65;;
24644;SDS011;12780;45.502;9.146;2023-12-07T00:12:00;67.50;;;33.50;;
24644;SDS011;12780;45.502;9.146;2023-12-07T00:14:26;67.50;;;34.85;;
24644;SDS011;12780;45.502;9.146;2023-12-07T00:16:52;65.10;;;34.45;;
24644;SDS011;12780;45.502;9.146;2023-12-07T00:19:19;68.50;;;34.83;;
24644;SDS011;12780;45.502;9.146;2023-12-07T00:21:45;67.05;;;35.15;;
24644;SDS011;12780;45.502;9.146;2023-12-07T00:24:11;64.95;;;34.55;;
24644;SDS011;12780;45.502;9.146;2023-12-07T00:26:37;66.13;;;34.72;;
24644;SDS011;12780;45.502;9.146;2023-12-07T00:29:03;64.53;;;34.28;;
24644;SDS011;12780;45.502;9.146;2023-12-07T00:31:29;64.80;;;33.92;;
24644;SDS011;12780;45.502;9.146;2023-12-07T00:33:55;65.45;;;33.95;;
24644;SDS011;12780;45.502;9.146;2023-12-07T00:36:21;68.05;;;33.08;;
24644;SDS011;12780;45.502;9.146;2023-12-07T00:38:47;67.75;;;35.95;;
24644;SDS011;12780;45.502;9.146;2023-12-07T00:41:13;65.20;;;35.35;;
24644;SDS011;12780;45.502;9.146;2023-12-07T00:43:39;69.68;;;34.70;;
24644;SDS011;12780;45.502;9.146;2023-12-07T00:46:08;67.80;;;33.95;;
24644;SDS011;12780;45.502;9.146;2023-12-07T00:48:34;62.42;;;32.53;;
24644;SDS011;12780;45.502;9.146;2023-12-07T00:51:00;64.97;;;34.33;;
24644;SDS011;12780;45.502;9.146;2023-12-07T00:53:26;60.58;;;34.00;;
24644;SDS011;12780;45.502;9.146;2023-12-07T00:55:52;64.70;;;34.97;;
24644;SDS011;12780;45.502;9.146;2023-12-07T00:58:18;67.57;;;33.72;;
24644;SDS011;12780;45.502;9.146;2023-12-07T01:00:44;66.25;;;32.58;;
24644;SDS011;12780;45.502;9.146;2023-12-07T01:03:10;60.03;;;32.85;;
24644;SDS011;12780;45.502;9.146;2023-12-07T01:05:36;66.30;;;33.03;;
24644;SDS011;12780;45.502;9.146;2023-12-07T01:08:02;61.67;;;33.15;;
24644;SDS011;12780;45.502;9.146;2023-12-07T01:10:28;62.97;;;33.08;;
24644;SDS011;12780;45.502;9.146;2023-12-07T01:12:54;60.42;;;33.47;;
24644;SDS011;12780;45.502;9.146;2023-12-07T01:15:20;60.08;;;33.47;;
24644;SDS011;12780;45.502;9.146;2023-12-07T01:17:46;62.72;;;33.33;;
24644;SDS011;12780;45.502;9.146;2023-12-07T01:20:12;68.13;;;32.83;;
24644;SDS011;12780;45.502;9.146;2023-12-07T01:22:41;59.22;;;30.67;;
24644;SDS011;12780;45.502;9.146;2023-12-07T01:25:07;59.58;;;32.60;;
24644;SDS011;12780;45.502;9.146;2023-12-07T01:27:34;65.05;;;34.60;;
24644;SDS011;12780;45.502;9.146;2023-12-07T01:30:00;65.00;;;32.88;;
24644;SDS011;12780;45.502;9.146;2023-12-07T01:32:26;64.75;;;33.85;;
24644;SDS011;12780;45.502;9.146;2023-12-07T01:34:52;63.33;;;32.72;;
24644;SDS011;12780;45.502;9.146;2023-12-07T01:37:18;65.53;;;34.78;;
24644;SDS011;12780;45.502;9.146;2023-12-07T01:39:44;70.75;;;34.70;;
24644;SDS011;12780;45.502;9.146;2023-12-07T01:42:10;61.28;;;33.38;;
24644;SDS011;12780;45.502;9.146;2023-12-07T01:44:37;60.20;;;31.80;;
24644;SDS011;12780;45.502;9.146;2023-12-07T01:47:03;65.22;;;32.85;;
24644;SDS011;12780;45.502;9.146;2023-12-07T01:49:30;58.60;;;32.80;;
24644;SDS011;12780;45.502;9.146;2023-12-07T01:51:56;61.97;;;32.08;;
24644;SDS011;12780;45.502;9.146;2023-12-07T01:54:22;63.13;;;32.88;;
24644;SDS011;12780;45.502;9.146;2023-12-07T01:56:50;62.97;;;33.17;;
24644;SDS011;12780;45.502;9.146;2023-12-07T01:59:16;65.22;;;33.25;;
24644;SDS011;12780;45.502;9.146;2023-12-07T02:01:42;60.85;;;30.38;;
24644;SDS011;12780;45.502;9.146;2023-12-07T02:04:09;65.78;;;32.97;;
24644;SDS011;12780;45.502;9.146;2023-12-07T02:06:35;62.28;;;33.53;;
24644;SDS011;12780;45.502;9.146;2023-12-07T02:09:01;63.15;;;32.22;;
24644;SDS011;12780;45.502;9.146;2023-12-07T02:11:28;63.40;;;33.10;;
24644;SDS011;12780;45.502;9.146;2023-12-07T02:13:54;67.97;;;33.38;;
24644;SDS011;12780;45.502;9.146;2023-12-07T02:16:35;67.25;;;32.40;;
24644;SDS011;12780;45.502;9.146;2023-12-07T02:21:52;60.83;;;32.00;;
24644;SDS011;12780;45.502;9.146;2023-12-07T02:24:22;65.75;;;32.90;;
24644;SDS011;12780;45.502;9.146;2023-12-07T02:26:49;61.83;;;33.75;;
24644;SDS011;12780;45.502;9.146;2023-12-07T02:29:15;63.78;;;33.40;;
24644;SDS011;12780;45.502;9.146;2023-12-07T02:31:41;64.80;;;33.72;;
24644;SDS011;12780;45.502;9.146;2023-12-07T02:34:07;59.50;;;31.77;;
24644;SDS011;12780;45.502;9.146;2023-12-07T02:36:34;59.72;;;30.92;;
24644;SDS011;12780;45.502;9.146;2023-12-07T02:39:01;57.17;;;30.48;;
24644;SDS011;12780;45.502;9.146;2023-12-07T02:41:29;58.88;;;31.13;;
24644;SDS011;12780;45.502;9.146;2023-12-07T02:43:56;60.03;;;31.58;;
24644;SDS011;12780;45.502;9.146;2023-12-07T02:46:23;63.75;;;31.50;;
24644;SDS011;12780;45.502;9.146;2023-12-07T02:48:49;59.13;;;30.50;;
24644;SDS011;12780;45.502;9.146;2023-12-07T02:51:15;60.15;;;30.48;;
24644;SDS011;12780;45.502;9.146;2023-12-07T02:53:41;57.08;;;29.95;;
24644;SDS011;12780;45.502;9.146;2023-12-07T02:56:07;58.08;;;31.58;;
24644;SDS011;12780;45.502;9.146;2023-12-07T02:58:33;53.05;;;29.02;;
24644;SDS011;12780;45.502;9.146;2023-12-07T03:00:59;58.65;;;31.58;;
24644;SDS011;12780;45.502;9.146;2023-12-07T03:03:25;57.72;;;30.13;;
24644;SDS011;12780;45.502;9.146;2023-12-07T03:05:51;61.20;;;29.05;;
24644;SDS011;12780;45.502;9.146;2023-12-07T03:08:17;60.47;;;30.95;;
24644;SDS011;12780;45.502;9.146;2023-12-07T03:10:43;57.83;;;29.55;;
24644;SDS011;12780;45.502;9.146;2023-12-07T03:13:09;59.13;;;29.42;;
24644;SDS011;12780;45.502;9.146;2023-12-07T03:15:35;58.58;;;29.17;;
24644;SDS011;12780;45.502;9.146;2023-12-07T03:18:01;57.40;;;30.42;;
24644;SDS011;12780;45.502;9.146;2023-12-07T03:20:27;63.13;;;31.33;;
24644;SDS011;12780;45.502;9.146;2023-12-07T03:22:53;56.67;;;29.00;;
24644;SDS011;12780;45.502;9.146;2023-12-07T03:25:19;57.38;;;30.00;;
24644;SDS011;12780;45.502;9.146;2023-12-07T03:27:45;58.53;;;30.02;;
24644;SDS011;12780;45.502;9.146;2023-12-07T03:30:11;58.25;;;29.23;;
24644;SDS011;12780;45.502;9.146;2023-12-07T03:32:38;57.80;;;29.35;;
24644;SDS011;12780;45.502;9.146;2023-12-07T03:35:04;53.33;;;28.55;;
24644;SDS011;12780;45.502;9.146;2023-12-07T03:37:30;55.75;;;26.80;;
24644;SDS011;12780;45.502;9.146;2023-12-07T03:39:56;50.25;;;27.73;;
24644;SDS011;12780;45.502;9.146;2023-12-07T03:42:22;56.33;;;26.92;;
24644;SDS011;12780;45.502;9.146;2023-12-07T03:44:48;53.72;;;26.45;;
24644;SDS011;12780;45.502;9.146;2023-12-07T03:47:14;48.67;;;26.73;;
24644;SDS011;12780;45.502;9.146;2023-12-07T03:49:40;47.42;;;26.70;;
24644;SDS011;12780;45.502;9.146;2023-12-07T03:52:07;48.30;;;26.23;;
24644;SDS011;12780;45.502;9.146;2023-12-07T03:54:33;53.72;;;27.55;;
24644;SDS011;12780;45.502;9.146;2023-12-07T03:56:59;53.60;;;26.35;;
24644;SDS011;12780;45.502;9.146;2023-12-07T03:59:25;48.78;;;26.70;;
24644;SDS011;12780;45.502;9.146;2023-12-07T04:01:51;57.08;;;26.48;;
24644;SDS011;12780;45.502;9.146;2023-12-07T04:04:17;50.60;;;27.42;;
24644;SDS011;12780;45.502;9.146;2023-12-07T04:06:43;49.00;;;26.17;;
24644;SDS011;12780;45.502;9.146;2023-12-07T04:09:09;50.47;;;26.63;;
24644;SDS011;12780;45.502;9.146;2023-12-07T04:11:35;49.90;;;26.75;;
24644;SDS011;12780;45.502;9.146;2023-12-07T04:14:01;53.45;;;27.17;;
24644;SDS011;12780;45.502;9.146;2023-12-07T04:16:27;50.25;;;26.50;;
24644;SDS011;12780;45.502;9.146;2023-12-07T04:18:53;47.78;;;26.27;;
24644;SDS011;12780;45.502;9.146;2023-12-07T04:21:19;55.10;;;26.60;;
24644;SDS011;12780;45.502;9.146;2023-12-07T04:23:45;51.72;;;25.48;;
24644;SDS011;12780;45.502;9.146;2023-12-07T04:26:11;49.10;;;25.88;;
24644;SDS011;12780;45.502;9.146;2023-12-07T04:28:37;49.88;;;25.77;;
24644;SDS011;12780;45.502;9.146;2023-12-07T04:31:03;52.95;;;27.08;;
24644;SDS011;12780;45.502;9.146;2023-12-07T04:33:29;48.78;;;26.27;;
24644;SDS011;12780;45.502;9.146;2023-12-07T04:35:55;52.55;;;26.45;;
24644;SDS011;12780;45.502;9.146;2023-12-07T04:38:21;48.58;;;25.98;;
24644;SDS011;12780;45.502;9.146;2023-12-07T04:40:47;44.72;;;26.30;;
24644;SDS011;12780;45.502;9.146;2023-12-07T04:43:13;49.47;;;26.63;;
24644;SDS011;12780;45.502;9.146;2023-12-07T04:45:39;49.05;;;24.83;;
24644;SDS011;12780;45.502;9.146;2023-12-07T04:48:06;52.15;;;26.77;;
24644;SDS011;12780;45.502;9.146;2023-12-07T04:50:32;53.42;;;25.88;;
24644;SDS011;12780;45.502;9.146;2023-12-07T04:52:58;47.10;;;26.25;;
24644;SDS011;12780;45.502;9.146;2023-12-07T04:55:24;51.60;;;25.83;;
24644;SDS011;12780;45.502;9.146;2023-12-07T04:57:51;48.97;;;26.27;;
24644;SDS011;12780;45.502;9.146;2023-12-07T05:00:17;50.45;;;26.83;;
24644;SDS011;12780;45.502;9.146;2023-12-07T05:02:43;46.30;;;24.80;;
24644;SDS011;12780;45.502;9.146;2023-12-07T05:05:09;51.60;;;25.55;;
24644;SDS011;12780;45.502;9.146;2023-12-07T05:07:35;52.30;;;25.75;;
24644;SDS011;12780;45.502;9.146;2023-12-07T05:10:01;45.08;;;24.67;;
24644;SDS011;12780;45.502;9.146;2023-12-07T05:12:28;56.20;;;26.35;;
24644;SDS011;12780;45.502;9.146;2023-12-07T05:14:54;47.63;;;26.00;;
24644;SDS011;12780;45.502;9.146;2023-12-07T05:17:20;50.15;;;26.17;;
24644;SDS011;12780;45.502;9.146;2023-12-07T05:19:46;53.97;;;27.38;;
24644;SDS011;12780;45.502;9.146;2023-12-07T05:22:13;63.25;;;30.42;;
24644;SDS011;12780;45.502;9.146;2023-12-07T05:24:40;66.32;;;30.55;;
24644;SDS011;12780;45.502;9.146;2023-12-07T05:27:06;63.28;;;29.70;;
24644;SDS011;12780;45.502;9.146;2023-12-07T05:29:32;59.97;;;30.02;;
24644;SDS011;12780;45.502;9.146;2023-12-07T05:31:58;63.10;;;32.13;;
24644;SDS011;12780;45.502;9.146;2023-12-07T05:34:24;62.40;;;30.83;;
24644;SDS011;12780;45.502;9.146;2023-12-07T05:36:50;55.08;;;28.60;;
24644;SDS011;12780;45.502;9.146;2023-12-07T05:39:16;56.90;;;28.42;;
24644;SDS011;12780;45.502;9.146;2023-12-07T05:41:42;49.88;;;27.63;;
24644;SDS011;12780;45.502;9.146;2023-12-07T05:44:08;50.60;;;27.77;;
24644;SDS011;12780;45.502;9.146;2023-12-07T05:46:37;55.50;;;27.13;;
24644;SDS011;12780;45.502;9.146;2023-12-07T05:49:08;47.58;;;26.02;;
24644;SDS011;12780;45.502;9.146;2023-12-07T05:51:34;48.42;;;26.58;;
24644;SDS011;12780;45.502;9.146;2023-12-07T05:54:00;54.80;;;26.73;;
24644;SDS011;12780;45.502;9.146;2023-12-07T05:56:28;50.75;;;26.65;;
24644;SDS011;12780;45.502;9.146;2023-12-07T05:58:54;53.38;;;25.38;;
24644;SDS011;12780;45.502;9.146;2023-12-07T06:01:20;51.95;;;26.48;;
24644;SDS011;12780;45.502;9.146;2023-12-07T06:03:46;51.55;;;25.88;;
24644;SDS011;12780;45.502;9.146;2023-12-07T06:06:12;52.90;;;26.38;;
24644;SDS011;12780;45.502;9.146;2023-12-07T06:08:38;48.90;;;26.05;;
24644;SDS011;12780;45.502;9.146;2023-12-07T06:11:04;49.35;;;24.55;;
24644;SDS011;12780;45.502;9.146;2023-12-07T06:13:30;50.63;;;24.77;;
24644;SDS011;12780;45.502;9.146;2023-12-07T06:15:56;44.03;;;23.13;;
24644;SDS011;12780;45.502;9.146;2023-12-07T06:18:22;50.85;;;24.25;;
24644;SDS011;12780;45.502;9.146;2023-12-07T06:20:48;48.42;;;22.80;;
24644;SDS011;12780;45.502;9.146;2023-12-07T06:23:14;42.05;;;22.27;;
24644;SDS011;12780;45.502;9.146;2023-12-07T06:25:41;44.17;;;23.70;;
24644;SDS011;12780;45.502;9.146;2023-12-07T06:28:07;43.92;;;22.48;;
24644;SDS011;12780;45.502;9.146;2023-12-07T06:30:33;44.67;;;24.10;;
24644;SDS011;12780;45.502;9.146;2023-12-07T06:32:59;42.00;;;22.85;;
24644;SDS011;12780;45.502;9.146;2023-12-07T06:35:25;43.67;;;22.83;;
24644;SDS011;12780;45.502;9.146;2023-12-07T06:37:52;45.10;;;22.35;;
24644;SDS011;12780;45.502;9.146;2023-12-07T06:40:18;40.60;;;21.77;;
24644;SDS011;12780;45.502;9.146;2023-12-07T06:42:45;42.80;;;22.77;;
24644;SDS011;12780;45.502;9.146;2023-12-07T06:45:11;44.70;;;23.80;;
24644;SDS011;12780;45.502;9.146;2023-12-07T06:47:39;43.38;;;21.92;;
24644;SDS011;12780;45.502;9.146;2023-12-07T06:50:07;42.55;;;22.15;;
24644;SDS011;12780;45.502;9.146;2023-12-07T06:52:35;41.85;;;22.10;;
24644;SDS011;12780;45.502;9.146;2023-12-07T06:55:01;39.33;;;21.85;;
24644;SDS011;12780;45.502;9.146;2023-12-07T06:57:27;48.60;;;22.35;;
24644;SDS011;12780;45.502;9.146;2023-12-07T06:59:53;42.08;;;20.70;;
24644;SDS011;12780;45.502;9.146;2023-12-07T07:02:19;40.53;;;20.50;;
24644;SDS011;12780;45.502;9.146;2023-12-07T07:04:45;38.85;;;20.65;;
24644;SDS011;12780;45.502;9.146;2023-12-07T07:07:14;40.67;;;20.30;;
24644;SDS011;12780;45.502;9.146;2023-12-07T07:09:40;44.72;;;22.15;;
24644;SDS011;12780;45.502;9.146;2023-12-07T07:12:06;43.40;;;22.38;;
24644;SDS011;12780;45.502;9.146;2023-12-07T07:14:32;41.15;;;21.33;;
24644;SDS011;12780;45.502;9.146;2023-12-07T07:16:59;42.50;;;22.10;;
24644;SDS011;12780;45.502;9.146;2023-12-07T07:19:25;43.30;;;22.20;;
24644;SDS011;12780;45.502;9.146;2023-12-07T07:21:51;43.83;;;22.92;;
24644;SDS011;12780;45.502;9.146;2023-12-07T07:24:17;43.40;;;21.90;;
24644;SDS011;12780;45.502;9.146;2023-12-07T07:26:43;52.83;;;23.83;;
24644;SDS011;12780;45.502;9.146;2023-12-07T07:29:09;49.25;;;23.98;;
24644;SDS011;12780;45.502;9.146;2023-12-07T07:31:35;46.17;;;23.27;;
24644;SDS011;12780;45.502;9.146;2023-12-07T07:34:01;44.88;;;24.63;;
24644;SDS011;12780;45.502;9.146;2023-12-07T07:36:27;45.72;;;23.65;;
24644;SDS011;12780;45.502;9.146;2023-12-07T07:38:54;42.63;;;23.15;;
24644;SDS011;12780;45.502;9.146;2023-12-07T07:41:20;52.47;;;25.08;;
24644;SDS011;12780;45.502;9.146;2023-12-07T07:43:46;42.78;;;23.92;;
24644;SDS011;12780;45.502;9.146;2023-12-07T07:46:12;45.53;;;25.00;;
24644;SDS011;12780;45.502;9.146;2023-12-07T07:48:38;49.15;;;24.52;;
24644;SDS011;12780;45.502;9.146;2023-12-07T07:51:04;51.15;;;24.27;;
24644;SDS011;12780;45.502;9.146;2023-12-07T07:53:30;47.53;;;24.95;;
24644;SDS011;12780;45.502;9.146;2023-12-07T07:55:56;50.42;;;23.75;;
24644;SDS011;12780;45.502;9.146;2023-12-07T07:58:22;46.75;;;25.33;;
24644;SDS011;12780;45.502;9.146;2023-12-07T08:00:48;51.60;;;26.20;;
24644;SDS011;12780;45.502;9.146;2023-12-07T08:03:15;57.17;;;27.92;;
24644;SDS011;12780;45.502;9.146;2023-12-07T08:05:41;52.05;;;24.80;;
24644;SDS011;12780;45.502;9.146;2023-12-07T08:08:07;48.30;;;22.75;;
24644;SDS011;12780;45.502;9.146;2023-12-07T08:10:34;45.42;;;23.30;;
24644;SDS011;12780;45.502;9.146;2023-12-07T08:13:00;52.10;;;22.13;;
24644;SDS011;12780;45.502;9.146;2023-12-07T08:15:26;41.65;;;21.98;;
24644;SDS011;12780;45.502;9.146;2023-12-07T08:17:52;42.67;;;22.23;;
24644;SDS011;12780;45.502;9.146;2023-12-07T08:20:18;43.63;;;22.40;;
24644;SDS011;12780;45.502;9.146;2023-12-07T08:22:44;52.78;;;22.40;;
24644;SDS011;12780;45.502;9.146;2023-12-07T08:25:10;46.53;;;22.88;;
24644;SDS011;12780;45.502;9.146;2023-12-07T08:27:37;46.22;;;22.80;;
24644;SDS011;12780;45.502;9.146;2023-12-07T08:30:03;45.22;;;21.38;;
24644;SDS011;12780;45.502;9.146;2023-12-07T08:32:30;48.15;;;21.77;;
24644;SDS011;12780;45.502;9.146;2023-12-07T08:34:56;47.38;;;21.90;;
24644;SDS011;12780;45.502;9.146;2023-12-07T08:37:22;46.17;;;22.90;;
24644;SDS011;12780;45.502;9.146;2023-12-07T08:39:48;39.30;;;20.55;;
24644;SDS011;12780;45.502;9.146;2023-12-07T08:42:14;42.00;;;21.33;;
24644;SDS011;12780;45.502;9.146;2023-12-07T08:44:40;45.00;;;21.83;;
24644;SDS011;12780;45.502;9.146;2023-12-07T08:47:06;42.58;;;20.35;;
24644;SDS011;12780;45.502;9.146;2023-12-07T08:49:32;41.45;;;21.33;;
24644;SDS011;12780;45.502;9.146;2023-12-07T08:51:58;41.72;;;21.48;;
24644;SDS011;12780;45.502;9.146;2023-12-07T08:54:24;37.72;;;20.17;;
24644;SDS011;12780;45.502;9.146;2023-12-07T08:56:50;41.63;;;21.35;;
24644;SDS011;12780;45.502;9.146;2023-12-07T08:59:16;44.63;;;21.52;;
24644;SDS011;12780;45.502;9.146;2023-12-07T09:01:42;44.40;;;22.38;;
24644;SDS011;12780;45.502;9.146;2023-12-07T09:04:08;51.60;;;23.02;;
24644;SDS011;12780;45.502;9.146;2023-12-07T09:06:35;49.60;;;23.35;;
24644;SDS011;12780;45.502;9.146;2023-12-07T09:09:02;42.70;;;22.40;;
24644;SDS011;12780;45.502;9.146;2023-12-07T09:11:29;47.28;;;24.00;;
24644;SDS011;12780;45.502;9.146;2023-12-07T09:13:55;49.22;;;25.05;;
24644;SDS011;12780;45.502;9.146;2023-12-07T09:16:21;49.10;;;22.92;;
24644;SDS011;12780;45.502;9.146;2023-12-07T09:18:47;44.45;;;23.25;;
24644;SDS011;12780;45.502;9.146;2023-12-07T09:21:13;45.85;;;23.83;;
24644;SDS011;12780;45.502;9.146;2023-12-07T09:23:39;43.00;;;24.05;;
24644;SDS011;12780;45.502;9.146;2023-12-07T09:26:05;50.42;;;24.10;;
24644;SDS011;12780;45.502;9.146;2023-12-07T09:28:32;47.28;;;24.25;;
24644;SDS011;12780;45.502;9.146;2023-12-07T09:30:58;49.22;;;25.88;;
24644;SDS011;12780;45.502;9.146;2023-12-07T09:33:25;57.08;;;26.27;;
24644;SDS011;12780;45.502;9.146;2023-12-07T09:35:51;47.05;;;27.83;;
24644;SDS011;12780;45.502;9.146;2023-12-07T09:38:17;50.33;;;28.38;;
24644;SDS011;12780;45.502;9.146;2023-12-07T09:40:43;54.17;;;27.45;;
24644;SDS011;12780;45.502;9.146;2023-12-07T09:43:10;48.45;;;27.08;;
24644;SDS011;12780;45.502;9.146;2023-12-07T09:45:37;57.80;;;27.50;;
24644;SDS011;12780;45.502;9.146;2023-12-07T09:48:03;48.50;;;27.77;;
24644;SDS011;12780;45.502;9.146;2023-12-07T09:50:30;49.47;;;28.35;;
24644;SDS011;12780;45.502;9.146;2023-12-07T09:52:57;46.38;;;25.80;;
24644;SDS011;12780;45.502;9.146;2023-12-07T09:55:23;50.60;;;26.73;;
24644;SDS011;12780;45.502;9.146;2023-12-07T09:57:50;54.78;;;26.17;;
24644;SDS011;12780;45.502;9.146;2023-12-07T10:00:16;45.35;;;23.10;;
24644;SDS011;12780;45.502;9.146;2023-12-07T10:02:44;53.05;;;23.65;;
24644;SDS011;12780;45.502;9.146;2023-12-07T10:05:10;47.25;;;24.10;;
24644;SDS011;12780;45.502;9.146;2023-12-07T10:07:41;42.75;;;22.63;;
24644;SDS011;12780;45.502;9.146;2023-12-07T10:10:08;46.90;;;21.52;;
24644;SDS011;12780;45.502;9.146;2023-12-07T10:12:38;38.92;;;21.95;;
24644;SDS011;12780;45.502;9.146;2023-12-07T10:15:11;48.58;;;21.95;;
24644;SDS011;12780;45.502;9.146;2023-12-07T10:20:17;43.75;;;22.60;;
24644;SDS011;12780;45.502;9.146;2023-12-07T10:22:43;41.65;;;21.92;;
24644;SDS011;12780;45.502;9.146;2023-12-07T10:25:10;39.22;;;22.20;;
24644;SDS011;12780;45.502;9.146;2023-12-07T10:27:37;47.15;;;22.88;;
24644;SDS011;12780;45.502;9.146;2023-12-07T10:30:05;51.22;;;23.92;;
24644;SDS011;12780;45.502;9.146;2023-12-07T10:32:31;46.63;;;24.70;;
24644;SDS011;12780;45.502;9.146;2023-12-07T10:34:57;42.72;;;22.75;;
24644;SDS011;12780;45.502;9.146;2023-12-07T10:37:26;41.42;;;21.20;;
24644;SDS011;12780;45.502;9.146;2023-12-07T10:39:52;43.70;;;23.05;;
24644;SDS011;12780;45.502;9.146;2023-12-07T10:42:18;44.88;;;22.67;;
24644;SDS011;12780;45.502;9.146;2023-12-07T10:44:45;36.92;;;21.27;;
24644;SDS011;12780;45.502;9.146;2023-12-07T10:47:13;38.70;;;18.73;;
24644;SDS011;12780;45.502;9.146;2023-12-07T10:49:40;35.00;;;17.73;;
24644;SDS011;12780;45.502;9.146;2023-12-07T10:52:10;35.90;;;17.77;;
24644;SDS011;12780;45.502;9.146;2023-12-07T10:57:24;38.30;;;17.85;;
24644;SDS011;12780;45.502;9.146;2023-12-07T10:59:50;42.13;;;18.23;;
24644;SDS011;12780;45.502;9.146;2023-12-07T11:02:18;34.40;;;18.60;;
24644;SDS011;12780;45.502;9.146;2023-12-07T11:04:45;32.25;;;18.42;;
24644;SDS011;12780;45.502;9.146;2023-12-07T11:07:12;30.25;;;17.42;;
24644;SDS011;12780;45.502;9.146;2023-12-07T11:09:45;34.57;;;17.20;;
24644;SDS011;12780;45.502;9.146;2023-12-07T11:12:23;29.17;;;16.08;;
24644;SDS011;12780;45.502;9.146;2023-12-07T11:14:53;33.33;;;17.17;;
24644;SDS011;12780;45.502;9.146;2023-12-07T11:17:20;32.95;;;16.55;;
24644;SDS011;12780;45.502;9.146;2023-12-07T11:19:47;33.28;;;17.50;;
24644;SDS011;12780;45.502;9.146;2023-12-07T11:22:13;33.83;;;17.17;;
24644;SDS011;12780;45.502;9.146;2023-12-07T11:24:52;35.35;;;17.15;;
24644;SDS011;12780;45.502;9.146;2023-12-07T11:27:19;28.42;;;16.23;;
24644;SDS011;12780;45.502;9.146;2023-12-07T11:29:46;29.00;;;16.20;;
24644;SDS011;12780;45.502;9.146;2023-12-07T11:32:13;32.28;;;15.27;;
24644;SDS011;12780;45.502;9.146;2023-12-07T11:34:40;36.05;;;16.40;;
24644;SDS011;12780;45.502;9.146;2023-12-07T11:37:09;30.35;;;17.05;;
24644;SDS011;12780;45.502;9.146;2023-12-07T11:39:39;32.20;;;16.40;;
24644;SDS011;12780;45.502;9.146;2023-12-07T11:42:11;29.02;;;16.60;;
24644;SDS011;12780;45.502;9.146;2023-12-07T11:44:38;34.42;;;17.17;;
24644;SDS011;12780;45.502;9.146;2023-12-07T11:47:04;29.60;;;17.02;;
24644;SDS011;12780;45.502;9.146;2023-12-07T11:49:30;30.13;;;16.33;;
24644;SDS011;12780;45.502;9.146;2023-12-07T11:51:57;31.25;;;17.10;;
24644;SDS011;12780;45.502;9.146;2023-12-07T11:54:23;35.80;;;16.35;;
24644;SDS011;12780;45.502;9.146;2023-12-07T11:56:57;30.45;;;16.63;;
24644;SDS011;12780;45.502;9.146;2023-12-07T11:59:24;26.10;;;15.43;;
24644;SDS011;12780;45.502;9.146;2023-12-07T12:01:51;28.27;;;14.63;;
24644;SDS011;12780;45.502;9.146;2023-12-07T12:04:17;23.95;;;13.82;;
24644;SDS011;12780;45.502;9.146;2023-12-07T12:06:44;27.30;;;14.20;;
24644;SDS011;12780;45.502;9.146;2023-12-07T12:09:13;27.52;;;14.38;;
24644;SDS011;12780;45.502;9.146;2023-12-07T12:11:49;30.08;;;15.00;;
24644;SDS011;12780;45.502;9.146;2023-12-07T12:14:15;31.33;;;14.75;;
24644;SDS011;12780;45.502;9.146;2023-12-07T12:16:45;25.50;;;14.98;;
24644;SDS011;12780;45.502;9.146;2023-12-07T12:19:11;26.85;;;14.73;;
24644;SDS011;12780;45.502;9.146;2023-12-07T12:21:38;47.30;;;22.60;;
24644;SDS011;12780;45.502;9.146;2023-12-07T12:24:07;46.20;;;25.42;;
24644;SDS011;12780;45.502;9.146;2023-12-07T12:26:34;36.17;;;15.18;;
24644;SDS011;12780;45.502;9.146;2023-12-07T12:29:00;28.95;;;15.02;;
24644;SDS011;12780;45.502;9.146;2023-12-07T12:31:27;24.02;;;14.07;;
24644;SDS011;12780;45.502;9.146;2023-12-07T12:33:54;25.92;;;14.40;;
24644;SDS011;12780;45.502;9.146;2023-12-07T12:36:20;25.60;;;14.45;;
24644;SDS011;12780;45.502;9.146;2023-12-07T12:38:52;25.02;;;15.18;;
24644;SDS011;12780;45.502;9.146;2023-12-07T12:41:18;33.63;;;14.63;;
24644;SDS011;12780;45.502;9.146;2023-12-07T12:43:44;26.63;;;14.48;;
24644;SDS011;12780;45.502;9.146;2023-12-07T12:46:11;23.90;;;14.15;;
24644;SDS011;12780;45.502;9.146;2023-12-07T12:48:37;27.60;;;15.25;;
24644;SDS011;12780;45.502;9.146;2023-12-07T12:51:13;24.10;;;13.48;;
24644;SDS011;12780;45.502;9.146;2023-12-07T12:53:45;23.05;;;13.68;;
24644;SDS011;12780;45.502;9.146;2023-12-07T12:56:15;24.13;;;13.50;;
24644;SDS011;12780;45.502;9.146;2023-12-07T12:58:41;27.42;;;15.40;;
24644;SDS011;12780;45.502;9.146;2023-12-07T13:01:07;29.90;;;16.75;;
24644;SDS011;12780;45.502;9.146;2023-12-07T13:03:33;37.80;;;19.88;;
24644;SDS011;12780;45.502;9.146;2023-12-07T13:05:59;51.70;;;25.88;;
24644;SDS011;12780;45.502;9.146;2023-12-07T13:08:25;45.08;;;27.00;;
24644;SDS011;12780;45.502;9.146;2023-12-07T13:10:51;47.63;;;26.80;;
24644;SDS011;12780;45.502;9.146;2023-12-07T13:13:17;45.47;;;26.00;;
24644;SDS011;12780;45.502;9.146;2023-12-07T13:15:44;52.22;;;26.33;;
24644;SDS011;12780;45.502;9.146;2023-12-07T13:18:10;50.47;;;25.75;;
24644;SDS011;12780;45.502;9.146;2023-12-07T13:20:36;42.40;;;24.17;;
24644;SDS011;12780;45.502;9.146;2023-12-07T13:23:02;48.05;;;24.17;;
24644;SDS011;12780;45.502;9.146;2023-12-07T13:25:28;38.60;;;22.65;;
24644;SDS011;12780;45.502;9.146;2023-12-07T13:27:54;47.08;;;26.35;;
24644;SDS011;12780;45.502;9.146;2023-12-07T13:30:20;51.75;;;26.45;;
24644;SDS011;12780;45.502;9.146;2023-12-07T13:32:46;44.05;;;26.65;;
24644;SDS011;12780;45.502;9.146;2023-12-07T13:35:13;45.67;;;26.63;;
24644;SDS011;12780;45.502;9.146;2023-12-07T13:37:39;47.50;;;27.20;;
24644;SDS011;12780;45.502;9.146;2023-12-07T13:40:05;49.13;;;26.73;;
24644;SDS011;12780;45.502;9.146;2023-12-07T13:42:35;45.55;;;26.42;;
24644;SDS011;12780;45.502;9.146;2023-12-07T13:45:02;46.33;;;25.65;;
24644;SDS011;12780;45.502;9.146;2023-12-07T13:47:28;48.47;;;27.40;;
24644;SDS011;12780;45.502;9.146;2023-12-07T13:49:58;47.70;;;26.95;;
24644;SDS011;12780;45.502;9.146;2023-12-07T13:52:25;50.35;;;26.75;;
24644;SDS011;12780;45.502;9.146;2023-12-07T13:54:51;47.13;;;25.80;;
24644;SDS011;12780;45.502;9.146;2023-12-07T13:57:17;44.08;;;25.60;;
24644;SDS011;12780;45.502;9.146;2023-12-07T13:59:44;41.28;;;25.48;;
24644;SDS011;12780;45.502;9.146;2023-12-07T14:02:10;44.67;;;26.17;;
24644;SDS011;12780;45.502;9.146;2023-12-07T14:04:37;47.35;;;27.17;;
24644;SDS011;12780;45.502;9.146;2023-12-07T14:07:11;44.25;;;25.88;;
24644;SDS011;12780;45.502;9.146;2023-12-07T14:09:37;44.75;;;25.52;;
24644;SDS011;12780;45.502;9.146;2023-12-07T14:12:03;43.85;;;24.73;;
24644;SDS011;12780;45.502;9.146;2023-12-07T14:14:30;48.38;;;24.75;;
24644;SDS011;12780;45.502;9.146;2023-12-07T14:16:56;45.30;;;24.98;;
24644;SDS011;12780;45.502;9.146;2023-12-07T14:19:22;49.05;;;25.30;;
24644;SDS011;12780;45.502;9.146;2023-12-07T14:21:49;44.30;;;25.27;;
24644;SDS011;12780;45.502;9.146;2023-12-07T14:24:14;46.72;;;24.95;;
24644;SDS011;12780;45.502;9.146;2023-12-07T14:26:44;50.33;;;25.15;;